Time;durP1;ratioP1;P1;durP2;ratioP2;P2;SDS_P1;SDS_P2;PMS_P1;PMS_P2;Temp;Humidity;BMP_temperature;BMP_pressure;BME280_temperature;BME280_humidity;BME280_pressure;Samples;Min_cycle;Max_cycle;Signal;HPM_P1;HPM_P2
2021/01/27 00:00:58;;;;;;;17.23;15.40;;;;;;;7.93;59.05;101457.84;4925964;29;20402;-81
2021/01/27 00:03:24;;;;;;;19.45;17.55;;;;;;;7.61;59.58;101458.53;4912391;29;20059;-81
2021/01/27 00:05:51;;;;;;;20.50;18.60;;;;;;;7.83;59.05;101449.84;4889172;29;20143;-81
2021/01/27 00:08:18;;;;;;;23.50;21.48;;;;;;;7.71;59.50;101441.16;4909100;29;20032;-80
2021/01/27 00:10:43;;;;;;;22.65;16.30;;;;;;;7.48;59.65;101440.88;4927024;29;20036;-82
2021/01/27 00:13:12;;;;;;;16.08;14.27;;;;;;;7.31;60.01;101442.66;4923949;29;20027;-82
2021/01/27 00:15:40;;;;;;;16.00;14.30;;;;;;;7.29;59.64;101428.44;4925309;29;20118;-81
2021/01/27 00:18:08;;;;;;;15.43;10.57;;;;;;;7.29;60.12;101425.75;4909506;29;20157;-80
2021/01/27 00:20:34;;;;;;;15.10;12.63;;;;;;;7.23;59.88;101429.09;4924463;29;20035;-81
2021/01/27 00:22:59;;;;;;;16.88;11.32;;;;;;;7.07;60.22;101419.00;4924213;29;20055;-81
2021/01/27 00:25:28;;;;;;;19.30;13.57;;;;;;;7.08;60.35;101425.28;4922980;29;20040;-81
2021/01/27 00:27:53;;;;;;;19.60;15.02;;;;;;;6.96;60.36;101428.22;4926632;29;20054;-81
2021/01/27 00:30:24;;;;;;;16.92;14.63;;;;;;;7.17;59.92;101417.03;4927810;29;20426;-81
2021/01/27 00:32:50;;;;;;;19.67;15.32;;;;;;;7.31;59.75;101412.06;4911850;29;20050;-81
2021/01/27 00:35:19;;;;;;;17.10;15.40;;;;;;;7.21;59.96;101408.59;4925610;29;20058;-81
2021/01/27 00:37:44;;;;;;;21.52;15.82;;;;;;;7.31;59.92;101404.78;4925735;29;20066;-80
2021/01/27 00:40:10;;;;;;;21.90;19.60;;;;;;;7.03;60.63;101389.72;4929851;29;20039;-81
2021/01/27 00:42:36;;;;;;;19.02;16.92;;;;;;;7.17;60.17;101386.44;4926435;29;20046;-81
2021/01/27 00:45:02;;;;;;;19.05;15.43;;;;;;;7.27;59.87;101389.88;4926204;29;20042;-81
2021/01/27 00:47:28;;;;;;;21.88;18.75;;;;;;;7.03;60.59;101387.88;4923000;29;20044;-81
2021/01/27 00:49:54;;;;;;;23.10;20.92;;;;;;;7.21;60.06;101378.84;4908893;29;20043;-81
2021/01/27 00:52:19;;;;;;;22.80;20.50;;;;;;;6.98;60.95;101380.25;4925436;29;20140;-81
2021/01/27 00:54:44;;;;;;;26.40;23.20;;;;;;;7.01;61.16;101376.38;4923612;29;20036;-81
2021/01/27 00:57:10;;;;;;;21.70;19.50;;;;;;;6.93;61.20;101362.81;4924361;29;20058;-81
2021/01/27 00:59:35;;;;;;;25.20;20.85;;;;;;;6.94;61.45;101368.06;4925675;29;20032;-81
2021/01/27 01:02:01;;;;;;;18.55;16.48;;;;;;;7.07;61.39;101355.97;4913480;29;20450;-83
2021/01/27 01:04:26;;;;;;;21.05;16.83;;;;;;;6.87;61.91;101349.94;4907220;29;20050;-82
2021/01/27 01:06:51;;;;;;;23.33;19.95;;;;;;;7.14;61.47;101352.44;4922833;29;20043;-81
2021/01/27 01:09:17;;;;;;;24.13;19.00;;;;;;;7.10;61.65;101344.81;4926082;29;20039;-81
2021/01/27 01:11:43;;;;;;;23.55;20.52;;;;;;;6.93;62.19;101331.19;4917353;29;20312;-82
2021/01/27 01:14:08;;;;;;;22.58;19.85;;;;;;;6.88;62.28;101328.13;4929961;29;20110;-82
2021/01/27 01:16:34;;;;;;;21.75;19.10;;;;;;;6.99;62.39;101318.91;4912084;29;20486;-80
2021/01/27 01:18:59;;;;;;;21.70;17.65;;;;;;;6.80;62.95;101295.66;4930132;29;20035;-81
2021/01/27 01:21:25;;;;;;;22.00;18.90;;;;;;;6.81;62.79;101300.91;4895238;29;20043;-82
2021/01/27 01:23:50;;;;;;;26.88;24.13;;;;;;;6.82;63.00;101289.06;4927460;29;20135;-81
2021/01/27 01:26:15;;;;;;;24.73;22.08;;;;;;;6.71;63.15;101294.75;4926845;29;20087;-81
2021/01/27 01:28:41;;;;;;;24.35;21.95;;;;;;;6.65;63.89;101287.28;4925123;29;20406;-82
2021/01/27 01:31:06;;;;;;;23.38;21.20;;;;;;;6.58;63.34;101280.81;4910531;29;20039;-82
2021/01/27 01:33:32;;;;;;;33.47;30.05;;;;;;;6.65;63.88;101276.47;4928920;29;20043;-82
2021/01/27 01:36:00;;;;;;;33.28;30.00;;;;;;;6.59;63.88;101279.81;4929437;29;20534;-81
2021/01/27 01:38:26;;;;;;;32.20;29.05;;;;;;;6.76;63.71;101270.78;4913545;29;20063;-80
2021/01/27 01:40:54;;;;;;;36.83;33.47;;;;;;;6.62;63.82;101272.22;4910852;29;20097;-80
2021/01/27 01:43:32;;;;;;;31.95;28.77;;;;;;;6.90;63.16;101268.50;4929401;29;20039;-81
2021/01/27 01:46:01;;;;;;;31.90;28.75;;;;;;;6.86;63.29;101264.41;4913397;29;20035;-82
2021/01/27 01:48:38;;;;;;;28.67;25.60;;;;;;;6.79;63.30;101270.47;4930180;29;20062;-81
2021/01/27 01:51:09;;;;;;;30.10;26.90;;;;;;;6.79;63.11;101265.06;4931727;29;20692;-82
2021/01/27 01:53:35;;;;;;;;;;;;;;;6.85;62.99;101263.56;4914784;29;20039;-81
2021/01/27 01:56:05;;;;;;;30.52;27.77;;;;;;;6.70;62.87;101254.38;4930356;29;20400;-81
2021/01/27 01:58:32;;;;;;;40.60;37.20;;;;;;;6.75;62.82;101254.72;4928384;29;20451;-81
2021/01/27 02:01:00;;;;;;;25.00;22.35;;;;;;;6.79;62.47;101251.53;4928152;29;20550;-81
2021/01/27 02:03:32;;;;;;;36.80;33.67;;;;;;;6.59;63.05;101250.09;4930671;29;20031;-83
2021/01/27 02:06:01;;;;;;;30.73;27.02;;;;;;;6.70;62.87;101247.09;4932353;29;20039;-81
2021/01/27 02:08:29;;;;;;;28.95;26.20;;;;;;;6.57;63.19;101244.00;4929034;29;20062;-82
2021/01/27 02:10:55;;;;;;;40.05;36.70;;;;;;;6.59;62.82;101242.81;4935492;29;20040;-81
2021/01/27 02:13:48;;;;;;;35.00;31.85;;;;;;;6.68;62.72;101243.72;4928214;29;20075;-82
2021/01/27 02:16:33;;;;;;;26.33;23.92;;;;;;;6.77;62.36;101226.53;4930706;29;20027;-81
2021/01/27 02:19:35;;;;;;;22.08;19.30;;;;;;;6.84;62.19;101220.47;4930541;29;20102;-81
2021/01/27 02:22:06;;;;;;;25.38;23.15;;;;;;;6.78;62.48;101203.03;4912423;29;20067;-82
2021/01/27 02:24:53;;;;;;;31.70;28.52;;;;;;;6.76;62.12;101200.50;4925956;29;20031;-82
2021/01/27 02:27:42;;;;;;;24.20;21.92;;;;;;;6.63;62.68;101205.53;4926448;29;20028;-82
2021/01/27 02:30:32;;;;;;;27.13;24.65;;;;;;;6.86;62.42;101208.50;4927643;29;20032;-80
2021/01/27 02:33:18;;;;;;;39.20;36.05;;;;;;;6.73;62.56;101197.28;4909626;29;20036;-81
2021/01/27 02:35:44;;;;;;;36.70;33.70;;;;;;;6.78;62.53;101193.09;4927560;29;20423;-80
2021/01/27 02:38:18;;;;;;;37.72;34.42;;;;;;;6.75;62.53;101187.16;4911860;29;20035;-81
2021/01/27 02:40:50;;;;;;;38.03;34.95;;;;;;;6.62;62.44;101183.03;4928397;29;20094;-82
2021/01/27 02:43:36;;;;;;;32.30;29.50;;;;;;;6.68;62.70;101181.56;4927202;29;20028;-81
2021/01/27 02:46:40;;;;;;;33.47;30.33;;;;;;;6.72;62.39;101174.84;4929213;29;20039;-81
2021/01/27 02:49:16;;;;;;;36.75;33.70;;;;;;;6.74;62.41;101164.69;4920524;29;20076;-80
2021/01/27 02:51:59;;;;;;;29.90;27.10;;;;;;;6.63;62.62;101157.72;4928826;29;20615;-83
2021/01/27 02:54:37;;;;;;;30.92;27.98;;;;;;;6.77;62.64;101158.13;4913027;29;20406;-81
2021/01/27 02:57:16;;;;;;;29.00;26.60;;;;;;;6.72;62.90;101149.63;4925789;29;20027;-81
2021/01/27 02:59:58;;;;;;;36.38;33.25;;;;;;;6.62;62.96;101142.50;4929739;29;20050;-82
2021/01/27 03:02:26;;;;;;;27.25;24.65;;;;;;;6.80;62.62;101139.72;4928625;29;20031;-81
2021/01/27 03:05:01;;;;;;;31.20;28.23;;;;;;;6.87;62.59;101148.00;4934650;29;20193;-81
2021/01/27 03:07:29;;;;;;;29.02;26.25;;;;;;;6.73;62.95;101151.34;4929229;29;20028;-80
2021/01/27 03:10:05;;;;;;;27.67;25.08;;;;;;;6.90;62.74;101136.03;4930535;29;20049;-81
2021/01/27 03:12:30;;;;;;;31.55;28.75;;;;;;;6.74;63.04;101128.72;4927884;29;20039;-81
2021/01/27 03:14:56;;;;;;;28.70;26.00;;;;;;;6.78;63.07;101122.81;4911376;29;20091;-81
2021/01/27 03:17:23;;;;;;;31.75;29.05;;;;;;;6.71;63.83;101124.47;4896729;29;20047;-81
2021/01/27 03:20:07;;;;;;;32.03;29.17;;;;;;;6.87;63.46;101120.97;4932017;29;20031;-82
2021/01/27 03:22:48;;;;;;;30.58;27.60;;;;;;;6.84;63.27;101112.34;4930847;29;20035;-81
2021/01/27 03:25:22;;;;;;;27.60;25.23;;;;;;;6.77;63.73;101102.19;4928990;29;20035;-81
2021/01/27 03:28:15;;;;;;;21.88;19.88;;;;;;;6.72;63.97;101101.00;4928525;29;20024;-81
2021/01/27 03:30:40;;;;;;;27.73;25.23;;;;;;;6.70;64.16;101093.03;4931485;29;20028;-81
2021/01/27 03:33:11;;;;;;;23.73;21.38;;;;;;;6.81;63.79;101092.75;4929983;29;20130;-81
2021/01/27 03:35:42;;;;;;;25.08;22.73;;;;;;;6.77;64.19;101088.69;4927195;29;20047;-81
2021/01/27 03:38:14;;;;;;;26.15;24.02;;;;;;;6.80;64.13;101087.53;4928424;29;20031;-81
2021/01/27 03:40:43;;;;;;;24.15;21.98;;;;;;;6.82;64.33;101083.63;4933903;29;20090;-81
2021/01/27 03:43:28;;;;;;;19.60;17.73;;;;;;;6.63;64.69;101084.75;4926297;29;20048;-81
2021/01/27 03:46:12;;;;;;;26.40;24.08;;;;;;;6.73;64.42;101071.09;4925175;29;20047;-80
2021/01/27 03:48:48;;;;;;;21.92;19.90;;;;;;;6.54;65.32;101076.81;4920586;29;20427;-81
2021/01/27 03:51:16;;;;;;;24.85;22.55;;;;;;;6.54;65.36;101074.09;4930475;29;20032;-81
2021/01/27 03:53:43;;;;;;;21.80;19.70;;;;;;;6.72;64.60;101058.63;4928993;29;20063;-81
2021/01/27 03:56:20;;;;;;;23.23;21.13;;;;;;;6.63;65.08;101055.03;4911415;29;20035;-81
2021/01/27 03:58:47;;;;;;;25.17;23.00;;;;;;;6.61;65.35;101051.66;4938154;29;20027;-82
2021/01/27 04:01:18;;;;;;;23.83;21.70;;;;;;;6.60;65.55;101047.25;4928204;29;20040;-81
2021/01/27 04:03:44;;;;;;;;;;;;;;;6.77;64.95;101055.41;4929172;29;20173;-80
2021/01/27 04:06:11;;;;;;;20.13;18.52;;;;;;;6.58;65.21;101052.00;4927967;29;19970;-79
2021/01/27 04:08:37;;;;;;;17.58;16.05;;;;;;;6.68;64.99;101062.66;4925589;29;20410;-80
2021/01/27 04:11:05;;;;;;;20.92;19.15;;;;;;;6.66;65.04;101061.13;4912338;29;20090;-82
2021/01/27 04:13:31;;;;;;;19.23;17.70;;;;;;;6.66;65.10;101053.88;4912904;29;20071;-80
2021/01/27 04:15:57;;;;;;;16.17;14.88;;;;;;;6.81;64.75;101051.34;4928605;29;20046;-80
2021/01/27 04:18:22;;;;;;;15.23;13.98;;;;;;;6.85;64.20;101052.72;4906850;29;20039;-79
2021/01/27 04:20:48;;;;;;;18.35;16.92;;;;;;;6.76;64.93;101045.59;4927173;29;20043;-81
2021/01/27 04:23:13;;;;;;;17.75;16.20;;;;;;;6.71;65.00;101040.69;4910437;29;20040;-81
2021/01/27 04:25:39;;;;;;;20.67;19.08;;;;;;;6.71;64.90;101035.28;4924071;29;20032;-81
2021/01/27 04:28:05;;;;;;;21.73;20.08;;;;;;;6.64;65.24;101026.16;4928225;29;20044;-81
2021/01/27 04:30:32;;;;;;;19.38;17.88;;;;;;;6.68;65.01;101016.69;4927064;29;20483;-81
2021/01/27 04:32:58;;;;;;;19.95;18.55;;;;;;;6.82;64.63;101015.19;4924860;29;20409;-81
2021/01/27 04:35:24;;;;;;;25.65;23.75;;;;;;;6.57;65.48;101020.56;4920036;29;20053;-81
2021/01/27 04:37:50;;;;;;;26.13;24.30;;;;;;;6.84;64.81;101017.75;4925703;29;20043;-81
2021/01/27 04:40:26;;;;;;;15.77;14.65;;;;;;;6.91;64.73;101021.47;4891587;29;20036;-80
2021/01/27 04:42:53;;;;;;;13.90;12.80;;;;;;;6.72;64.89;101020.78;4922669;29;20032;-82
2021/01/27 04:45:20;;;;;;;16.25;14.95;;;;;;;6.70;65.16;101017.38;4909631;29;20047;-81
2021/01/27 04:47:51;;;;;;;20.30;18.90;;;;;;;6.63;65.43;101016.38;4906734;29;20044;-81
2021/01/27 04:50:38;;;;;;;21.73;20.20;;;;;;;6.72;65.31;101014.50;4910798;29;20035;-79
2021/01/27 04:53:13;;;;;;;22.20;20.60;;;;;;;6.69;65.36;101017.53;4914463;29;20040;-81
2021/01/27 04:56:05;;;;;;;17.08;15.88;;;;;;;6.80;64.80;101025.34;4912681;29;20038;-82
2021/01/27 04:59:12;;;;;;;17.55;16.38;;;;;;;6.89;64.61;101010.81;4911893;29;20455;-80
2021/01/27 05:02:11;;;;;;;17.23;15.98;;;;;;;6.84;64.99;101009.63;4910271;29;20044;-80
2021/01/27 05:04:49;;;;;;;14.02;13.02;;;;;;;6.65;65.39;100991.88;4913318;29;20042;-80
2021/01/27 05:07:19;;;;;;;20.85;19.35;;;;;;;6.68;65.53;100986.13;4912471;29;20138;-81
2021/01/27 05:09:57;;;;;;;17.40;16.10;;;;;;;6.45;65.91;100968.69;4911970;29;20103;-81
2021/01/27 05:12:34;;;;;;;17.00;15.80;;;;;;;6.50;66.21;100967.38;4895719;29;20622;-81
2021/01/27 05:15:00;;;;;;;21.70;20.17;;;;;;;6.52;65.94;100959.94;4913484;29;20035;-80
2021/01/27 05:17:25;;;;;;;21.75;20.25;;;;;;;6.78;65.43;100957.06;4909308;29;20040;-79
2021/01/27 05:19:51;;;;;;;17.45;16.25;;;;;;;6.67;65.56;100958.25;4910935;29;20067;-81
2021/01/27 05:22:18;;;;;;;18.60;17.38;;;;;;;6.63;65.84;100967.72;4912649;29;20040;-81
2021/01/27 05:24:45;;;;;;;19.30;18.00;;;;;;;6.72;65.42;100958.63;4899979;29;20035;-81
2021/01/27 05:27:22;;;;;;;22.35;20.90;;;;;;;6.79;65.18;100956.91;4915792;29;20047;-81
2021/01/27 05:30:01;;;;;;;22.52;20.92;;;;;;;6.86;65.06;100954.41;4911415;29;20136;-80
2021/01/27 05:32:26;;;;;;;16.90;15.77;;;;;;;6.84;65.20;100944.75;4907953;29;20044;-80
2021/01/27 05:34:57;;;;;;;21.00;19.48;;;;;;;6.95;65.00;100952.50;4913097;29;20107;-80
2021/01/27 05:37:28;;;;;;;12.55;11.70;;;;;;;6.70;65.65;100936.28;4914777;29;20044;-80
2021/01/27 05:40:06;;;;;;;;;;;;;;;6.65;65.88;100937.84;4913433;29;20065;-80
2021/01/27 05:42:33;;;;;;;18.67;17.38;;;;;;;6.73;65.66;100927.00;4905011;29;19985;-81
2021/01/27 05:45:25;;;;;;;21.13;19.63;;;;;;;6.89;65.38;100924.31;4914122;29;20031;-80
2021/01/27 05:47:52;;;;;;;23.65;22.05;;;;;;;6.76;65.54;100927.50;4914269;29;20039;-80
2021/01/27 05:50:43;;;;;;;28.60;26.75;;;;;;;6.72;65.95;100930.72;4913058;29;20043;-80
2021/01/27 05:53:14;;;;;;;24.58;22.95;;;;;;;6.69;66.23;100920.25;4931670;29;20090;-80
2021/01/27 05:56:04;;;;;;;34.85;32.55;;;;;;;6.86;65.59;100924.66;4927106;29;20031;-79
2021/01/27 05:58:33;;;;;;;18.52;17.33;;;;;;;6.92;65.61;100931.22;4929088;29;20036;-80
2021/01/27 06:01:19;;;;;;;21.08;19.63;;;;;;;6.69;65.90;100925.66;4932384;29;20041;-80
2021/01/27 06:03:50;;;;;;;24.30;22.60;;;;;;;6.94;65.37;100923.81;4928536;29;20035;-80
2021/01/27 06:06:16;;;;;;;22.55;20.98;;;;;;;6.91;65.55;100922.28;4927568;29;20027;-80
2021/01/27 06:08:54;;;;;;;20.60;19.00;;;;;;;6.94;65.71;100931.91;4930774;29;20118;-81
2021/01/27 06:11:21;;;;;;;21.08;19.55;;;;;;;7.05;65.30;100928.84;4928784;29;20024;-80
2021/01/27 06:13:48;;;;;;;18.17;16.83;;;;;;;6.90;65.55;100917.03;4907405;29;20107;-82
2021/01/27 06:16:20;;;;;;;25.10;23.38;;;;;;;6.75;66.12;100901.53;4926725;29;20070;-81
2021/01/27 06:18:46;;;;;;;27.17;25.17;;;;;;;6.69;66.26;100891.38;4914746;29;20107;-82
2021/01/27 06:21:17;;;;;;;22.52;20.85;;;;;;;6.69;66.53;100860.78;4919055;29;20079;-81
2021/01/27 06:23:55;;;;;;;22.98;21.23;;;;;;;6.57;66.89;100849.50;4916368;29;20588;-81
2021/01/27 06:26:45;;;;;;;24.10;22.33;;;;;;;6.80;66.36;100857.75;4925335;29;20040;-80
2021/01/27 06:29:24;;;;;;;21.55;19.95;;;;;;;6.84;66.24;100863.66;4924522;29;20067;-81
2021/01/27 06:32:04;;;;;;;25.20;23.40;;;;;;;6.76;66.41;100859.09;4910363;29;20028;-82
2021/01/27 06:34:43;;;;;;;31.92;29.70;;;;;;;6.80;66.22;100857.75;4929953;29;20114;-82
2021/01/27 06:37:46;;;;;;;32.15;29.80;;;;;;;7.05;65.98;100871.22;4930090;29;20111;-80
2021/01/27 06:40:20;;;;;;;36.22;33.75;;;;;;;6.87;66.02;100876.84;4928315;29;20513;-81
2021/01/27 06:43:07;;;;;;;35.40;32.97;;;;;;;6.94;65.98;100884.09;4926580;29;20414;-81
2021/01/27 06:45:50;;;;;;;23.63;21.90;;;;;;;6.83;66.65;100870.94;4926967;29;20032;-80
2021/01/27 06:48:34;;;;;;;25.95;24.05;;;;;;;7.07;65.88;100870.03;4926174;29;20383;-80
2021/01/27 06:51:19;;;;;;;31.58;29.33;;;;;;;6.84;66.23;100863.66;4908271;29;20051;-81
2021/01/27 06:54:02;;;;;;;30.02;27.73;;;;;;;6.85;66.65;100870.75;4924029;29;20036;-81
2021/01/27 06:56:46;;;;;;;22.73;21.02;;;;;;;6.99;66.25;100883.56;4942866;29;20039;-81
2021/01/27 06:59:32;;;;;;;26.65;24.65;;;;;;;7.09;65.93;100873.41;4925127;29;20036;-81
2021/01/27 07:02:06;;;;;;;24.73;22.85;;;;;;;7.08;66.03;100868.19;4923033;29;20070;-80
2021/01/27 07:04:50;;;;;;;27.05;25.00;;;;;;;6.89;66.44;100856.72;4928833;29;20491;-82
2021/01/27 07:07:31;;;;;;;28.63;26.42;;;;;;;7.01;66.59;100859.06;4911736;29;20027;-80
2021/01/27 07:10:46;;;;;;;26.77;24.77;;;;;;;7.12;66.09;100862.25;4912208;29;20209;-81
2021/01/27 07:13:42;;;;;;;26.02;23.90;;;;;;;7.08;66.09;100871.72;4898697;29;20083;-81
2021/01/27 07:16:16;;;;;;;22.77;20.95;;;;;;;7.10;66.19;100872.38;4908179;29;20035;-81
2021/01/27 07:19:00;;;;;;;29.13;26.95;;;;;;;7.04;66.33;100883.06;4926782;29;20031;-81
2021/01/27 07:21:36;;;;;;;30.15;28.02;;;;;;;7.24;65.93;100865.41;4927928;29;20048;-80
2021/01/27 07:24:06;;;;;;;28.13;25.83;;;;;;;7.15;66.09;100861.91;4929057;29;20036;-80
2021/01/27 07:26:55;;;;;;;30.40;28.20;;;;;;;7.15;66.52;100880.84;4924127;29;20059;-80
2021/01/27 07:29:38;;;;;;;20.92;19.35;;;;;;;7.27;66.09;100875.88;4924618;29;20167;-81
2021/01/27 07:32:14;;;;;;;21.25;19.60;;;;;;;7.28;66.05;100880.28;4923215;29;20036;-81
2021/01/27 07:34:50;;;;;;;26.08;23.95;;;;;;;7.31;66.16;100879.09;4921043;29;20550;-80
2021/01/27 07:37:31;;;;;;;21.23;19.58;;;;;;;7.39;65.95;100870.13;4907164;29;20046;-80
2021/01/27 07:40:01;;;;;;;22.38;20.48;;;;;;;7.34;66.22;100867.94;4922987;29;20028;-81
2021/01/27 07:43:04;;;;;;;25.67;23.77;;;;;;;7.32;66.67;100867.25;4923532;29;20024;-79
2021/01/27 07:45:36;;;;;;;22.23;20.38;;;;;;;7.39;66.71;100870.94;4910917;29;20039;-80
2021/01/27 07:48:24;;;;;;;20.40;18.60;;;;;;;7.57;66.08;100876.13;4899075;29;20040;-77
2021/01/27 07:50:59;;;;;;;21.60;19.58;;;;;;;7.31;66.79;100868.28;4920625;29;20056;-78
2021/01/27 07:54:00;;;;;;;20.60;18.80;;;;;;;7.63;66.13;100882.69;4926591;29;20191;-77
2021/01/27 07:56:54;;;;;;;21.85;19.83;;;;;;;7.51;66.70;100884.94;4922893;29;20024;-78
2021/01/27 07:59:30;;;;;;;20.77;18.85;;;;;;;7.58;67.04;100885.91;4921830;29;20024;-78
2021/01/27 08:01:58;;;;;;;24.48;22.27;;;;;;;7.63;66.78;100883.53;4925863;29;20038;-77
2021/01/27 08:04:32;;;;;;;24.58;22.48;;;;;;;7.44;67.55;100873.13;4926426;29;20039;-77
2021/01/27 08:06:58;;;;;;;26.52;24.23;;;;;;;7.67;67.23;100878.63;4923906;29;20429;-77
2021/01/27 08:09:31;;;;;;;28.02;25.63;;;;;;;7.82;66.94;100874.13;4927486;29;20027;-78
2021/01/27 08:12:13;;;;;;;26.77;24.23;;;;;;;7.81;67.34;100879.72;4924246;29;20565;-78
2021/01/27 08:15:02;;;;;;;22.73;20.63;;;;;;;7.81;67.48;100882.44;4926568;29;20055;-77
2021/01/27 08:18:03;;;;;;;22.25;20.15;;;;;;;7.88;67.83;100873.44;4924138;29;20055;-78
2021/01/27 08:20:38;;;;;;;24.25;22.17;;;;;;;8.13;67.24;100872.44;4914662;29;20042;-78
2021/01/27 08:23:07;;;;;;;25.85;23.45;;;;;;;8.11;67.60;100875.34;4909393;29;20741;-79
2021/01/27 08:25:56;;;;;;;22.15;19.88;;;;;;;8.17;67.60;100868.34;4931806;29;20403;-77
2021/01/27 08:28:36;;;;;;;20.98;18.98;;;;;;;8.39;67.27;100869.38;4926712;29;20648;-78
2021/01/27 08:31:08;;;;;;;22.25;19.80;;;;;;;8.18;68.20;100873.56;4929201;29;20071;-78
2021/01/27 08:33:53;;;;;;;17.38;15.50;;;;;;;8.49;67.67;100867.28;4931556;29;20549;-78
2021/01/27 08:36:33;;;;;;;19.10;17.40;;;;;;;8.62;67.56;100865.81;4921990;29;20110;-78
2021/01/27 08:38:59;;;;;;;19.55;17.80;;;;;;;8.51;68.25;100873.38;4902493;29;20414;-78
2021/01/27 08:41:54;;;;;;;20.38;18.48;;;;;;;8.78;67.76;100880.06;4925023;29;20044;-78
2021/01/27 08:44:19;;;;;;;20.50;18.40;;;;;;;8.86;67.70;100872.88;4914117;29;20126;-78
2021/01/27 08:47:10;;;;;;;26.08;23.98;;;;;;;8.90;67.77;100879.63;4931101;29;20142;-78
2021/01/27 08:49:59;;;;;;;23.20;20.73;;;;;;;9.03;67.42;100885.25;4895800;29;20054;-79
2021/01/27 08:52:29;;;;;;;21.50;19.40;;;;;;;9.10;67.48;100893.50;4928655;29;20514;-77
2021/01/27 08:54:55;;;;;;;23.98;18.05;;;;;;;9.12;67.75;100883.31;4927479;29;20124;-77
2021/01/27 08:57:27;;;;;;;29.40;22.90;;;;;;;9.25;67.28;100888.94;4927355;29;20032;-77
2021/01/27 09:00:04;;;;;;;24.65;22.05;;;;;;;9.43;66.91;100890.44;4925842;29;20035;-78
2021/01/27 09:02:45;;;;;;;31.80;23.60;;;;;;;9.49;66.91;100893.22;4926380;29;20043;-78
2021/01/27 09:05:26;;;;;;;22.85;19.98;;;;;;;9.60;66.81;100897.34;4928509;29;20027;-78
2021/01/27 09:08:11;;;;;;;24.93;19.53;;;;;;;9.65;67.58;100894.91;4930458;29;20039;-79
2021/01/27 09:10:47;;;;;;;22.05;15.85;;;;;;;9.74;68.39;100898.34;4923938;29;20522;-80
2021/01/27 09:13:44;;;;;;;13.70;12.35;;;;;;;9.89;68.79;100911.91;4927940;29;20534;-79
2021/01/27 09:16:27;;;;;;;19.10;15.20;;;;;;;10.02;69.32;100908.50;4927781;29;20052;-79
2021/01/27 09:18:58;;;;;;;15.13;13.55;;;;;;;10.16;69.02;100914.94;4927572;29;20043;-79
2021/01/27 09:21:25;;;;;;;11.55;10.30;;;;;;;10.37;68.22;100909.53;4912670;29;20028;-79
2021/01/27 09:24:04;;;;;;;11.63;10.50;;;;;;;10.35;68.64;100925.22;4925944;29;20538;-79
2021/01/27 09:26:44;;;;;;;12.85;9.82;;;;;;;10.47;68.30;100924.69;4926656;29;20079;-79
2021/01/27 09:29:19;;;;;;;12.45;9.85;;;;;;;10.50;68.27;100937.91;4928095;29;20032;-80
2021/01/27 09:31:45;;;;;;;16.70;11.98;;;;;;;10.52;68.22;100939.41;4926020;29;20039;-80
2021/01/27 09:34:24;;;;;;;11.07;8.68;;;;;;;10.42;68.45;100940.75;4926082;29;20039;-80
2021/01/27 09:37:03;;;;;;;11.50;10.05;;;;;;;10.48;68.36;100948.16;4929065;29;20051;-80
2021/01/27 09:39:35;;;;;;;13.57;9.18;;;;;;;10.59;68.03;100941.34;4929418;29;20063;-79
2021/01/27 09:42:13;;;;;;;18.35;8.98;;;;;;;10.64;68.17;100942.44;4913440;29;20040;-79
2021/01/27 09:44:39;;;;;;;10.50;9.13;;;;;;;10.81;67.93;100950.34;4914382;29;20145;-79
2021/01/27 09:47:07;;;;;;;14.85;8.40;;;;;;;10.69;67.84;100944.56;4929583;29;20058;-79
2021/01/27 09:49:39;;;;;;;11.15;8.93;;;;;;;10.69;67.73;100952.72;4931820;29;20075;-79
2021/01/27 09:52:06;;;;;;;13.10;5.50;;;;;;;10.83;67.63;100946.41;4932262;29;20046;-79
2021/01/27 09:54:32;;;;;;;9.85;6.13;;;;;;;10.87;67.53;100953.09;4933058;29;20027;-78
2021/01/27 09:57:01;;;;;;;7.20;6.47;;;;;;;11.01;67.07;100948.63;4929445;29;20139;-80
2021/01/27 09:59:27;;;;;;;8.55;5.53;;;;;;;10.88;67.09;100959.41;4931095;29;20028;-78
2021/01/27 10:01:53;;;;;;;9.82;5.85;;;;;;;11.00;66.51;100970.59;4931882;29;20035;-79
2021/01/27 10:04:34;;;;;;;7.18;5.22;;;;;;;11.02;66.51;100969.38;4931204;29;20039;-79
2021/01/27 10:07:21;;;;;;;;;;;;;;;11.00;66.34;100974.16;4906921;29;20458;-80
2021/01/27 10:09:52;;;;;;;11.00;6.75;;;;;;;11.02;66.34;100977.53;4927788;29;19923;-80
2021/01/27 10:12:24;;;;;;;9.88;6.25;;;;;;;10.91;66.56;100988.94;4920422;29;20036;-80
2021/01/27 10:14:59;;;;;;;11.65;7.13;;;;;;;10.95;66.34;101001.09;4928365;29;20032;-79
2021/01/27 10:17:27;;;;;;;10.60;5.28;;;;;;;10.85;66.84;100998.72;4925557;29;20063;-79
2021/01/27 10:20:20;;;;;;;8.05;5.78;;;;;;;11.08;66.18;100997.69;4929753;29;20063;-79
2021/01/27 10:22:55;;;;;;;9.10;6.40;;;;;;;11.08;66.06;100994.97;4919825;29;20051;-79
2021/01/27 10:25:29;;;;;;;8.48;5.78;;;;;;;11.09;65.91;100993.91;4912845;29;20024;-78
2021/01/27 10:28:15;;;;;;;13.52;8.52;;;;;;;11.09;66.48;100999.34;4925786;29;20399;-79
2021/01/27 10:30:48;;;;;;;14.65;8.73;;;;;;;11.13;66.13;100994.38;4914101;29;20032;-79
2021/01/27 10:33:48;;;;;;;12.98;10.10;;;;;;;11.33;65.95;101016.31;4928080;29;20043;-79
2021/01/27 10:36:39;;;;;;;16.45;8.52;;;;;;;11.36;65.93;101005.03;4929155;29;20039;-78
2021/01/27 10:39:25;;;;;;;15.25;8.18;;;;;;;11.43;65.81;101009.50;4932878;29;20402;-79
2021/01/27 10:42:21;;;;;;;17.95;9.25;;;;;;;11.34;65.92;101015.25;4928540;29;20024;-78
2021/01/27 10:44:46;;;;;;;20.15;11.77;;;;;;;11.24;66.40;101018.34;4930343;29;20059;-78
2021/01/27 10:47:13;;;;;;;19.95;12.07;;;;;;;11.29;66.17;101021.31;4906166;29;20039;-80
2021/01/27 10:49:44;;;;;;;15.88;11.52;;;;;;;11.22;66.29;101021.25;4929591;29;20053;-79
2021/01/27 10:52:22;;;;;;;;;;;;;;;11.29;66.02;101018.56;4911669;29;20114;-79
2021/01/27 10:54:56;;;;;;;19.65;13.85;;;;;;;11.24;65.90;101010.16;4932252;29;20054;-79
2021/01/27 10:57:21;;;;;;;16.30;11.23;;;;;;;11.23;65.72;101016.63;4930197;29;20119;-79
2021/01/27 10:59:47;;;;;;;21.30;14.10;;;;;;;11.28;65.46;101004.13;4929428;29;20028;-79
2021/01/27 11:02:13;;;;;;;16.80;12.18;;;;;;;11.15;65.59;101017.63;4931858;29;20436;-79
2021/01/27 11:04:38;;;;;;;17.20;14.27;;;;;;;11.21;65.26;101021.44;4926063;29;20063;-79
2021/01/27 11:07:04;;;;;;;16.45;9.98;;;;;;;11.25;65.16;101025.47;4925577;29;20095;-81
2021/01/27 11:09:30;;;;;;;21.30;11.30;;;;;;;11.10;65.05;101018.22;4929705;29;20055;-79
2021/01/27 11:11:57;;;;;;;14.25;12.05;;;;;;;11.24;64.32;101011.00;4929318;29;20039;-78
2021/01/27 11:14:23;;;;;;;15.52;10.95;;;;;;;11.11;64.66;101010.91;4928441;29;20079;-78
2021/01/27 11:16:48;;;;;;;17.90;10.63;;;;;;;11.25;64.25;101009.97;4929061;29;20040;-78
2021/01/27 11:19:14;;;;;;;14.73;10.07;;;;;;;11.31;63.95;101008.34;4912686;29;20505;-79
2021/01/27 11:21:39;;;;;;;13.43;9.85;;;;;;;11.28;63.92;101014.19;4928557;29;20035;-79
2021/01/27 11:24:08;;;;;;;14.93;11.05;;;;;;;11.26;63.91;101008.94;4927315;29;20042;-79
2021/01/27 11:26:35;;;;;;;16.50;11.52;;;;;;;11.35;63.65;101009.63;4911842;29;20531;-79
2021/01/27 11:29:01;;;;;;;15.48;12.45;;;;;;;11.37;63.63;101003.97;4909324;29;20036;-79
2021/01/27 11:31:28;;;;;;;13.50;9.48;;;;;;;11.33;63.63;101002.72;4929113;29;20035;-78
2021/01/27 11:33:54;;;;;;;13.70;11.10;;;;;;;11.49;63.52;100999.66;4928451;29;20162;-79
2021/01/27 11:36:21;;;;;;;20.42;8.43;;;;;;;11.35;63.96;101001.44;4928257;29;20557;-79
2021/01/27 11:38:48;;;;;;;15.90;7.90;;;;;;;11.46;63.38;101000.94;4928564;29;20044;-79
2021/01/27 11:41:14;;;;;;;9.90;8.82;;;;;;;11.33;63.68;100992.66;4927047;29;20127;-79
2021/01/27 11:43:41;;;;;;;18.58;10.20;;;;;;;11.51;63.43;100985.84;4922151;29;20574;-79
2021/01/27 11:46:08;;;;;;;19.60;7.20;;;;;;;11.56;63.46;100981.50;4927636;29;20078;-79
2021/01/27 11:48:34;;;;;;;17.52;10.50;;;;;;;11.80;62.88;100976.59;4925837;29;20114;-78
2021/01/27 11:51:00;;;;;;;16.00;8.48;;;;;;;12.10;63.06;100982.66;4925068;29;20075;-79